sensor_id;sensor_type;location;lat;lon;timestamp;pressure;altitude;pressure_sealevel;temperature
71630;BMP280;59479;51.902;8.212;2022-09-03T00:10:46;100749.19;;;20.25
71630;BMP280;59479;51.902;8.212;2022-09-03T00:13:20;100759.50;;;20.22
71630;BMP280;59479;51.902;8.212;2022-09-03T00:15:49;100753.78;;;20.16
71630;BMP280;59479;51.902;8.212;2022-09-03T00:18:20;100751.16;;;20.17
71630;BMP280;59479;51.902;8.212;2022-09-03T00:20:51;100747.03;;;20.15
71630;BMP280;59479;51.902;8.212;2022-09-03T00:23:22;100741.25;;;20.10
71630;BMP280;59479;51.902;8.212;2022-09-03T00:26:16;100749.47;;;20.18
71630;BMP280;59479;51.902;8.212;2022-09-03T00:29:00;100742.03;;;20.12
71630;BMP280;59479;51.902;8.212;2022-09-03T00:31:34;100745.34;;;20.14
71630;BMP280;59479;51.902;8.212;2022-09-03T00:34:23;100738.59;;;20.13
71630;BMP280;59479;51.902;8.212;2022-09-03T00:36:51;100748.00;;;20.11
71630;BMP280;59479;51.902;8.212;2022-09-03T00:39:19;100748.56;;;20.19
71630;BMP280;59479;51.902;8.212;2022-09-03T00:41:59;100744.59;;;20.12
71630;BMP280;59479;51.902;8.212;2022-09-03T01:00:38;100728.91;;;19.99
71630;BMP280;59479;51.902;8.212;2022-09-03T01:03:16;100731.91;;;19.87
71630;BMP280;59479;51.902;8.212;2022-09-03T01:06:04;100740.59;;;19.80
71630;BMP280;59479;51.902;8.212;2022-09-03T01:09:15;100737.16;;;19.81
71630;BMP280;59479;51.902;8.212;2022-09-03T01:14:55;100748.19;;;19.82
71630;BMP280;59479;51.902;8.212;2022-09-03T01:17:41;100747.66;;;19.74
71630;BMP280;59479;51.902;8.212;2022-09-03T01:31:15;100753.72;;;19.70
71630;BMP280;59479;51.902;8.212;2022-09-03T01:39:45;100755.50;;;19.68
71630;BMP280;59479;51.902;8.212;2022-09-03T01:43:09;100748.78;;;19.66
71630;BMP280;59479;51.902;8.212;2022-09-03T01:45:53;100752.19;;;19.66
71630;BMP280;59479;51.902;8.212;2022-09-03T01:48:31;100757.34;;;19.65
71630;BMP280;59479;51.902;8.212;2022-09-03T01:51:22;100753.84;;;19.67
71630;BMP280;59479;51.902;8.212;2022-09-03T02:00:02;100756.91;;;19.52
71630;BMP280;59479;51.902;8.212;2022-09-03T02:02:28;100746.97;;;19.45
71630;BMP280;59479;51.902;8.212;2022-09-03T02:05:04;100751.97;;;19.48
71630;BMP280;59479;51.902;8.212;2022-09-03T02:07:39;100751.34;;;19.41
71630;BMP280;59479;51.902;8.212;2022-09-03T02:10:10;100746.16;;;19.44
71630;BMP280;59479;51.902;8.212;2022-09-03T02:12:37;100745.22;;;19.47
71630;BMP280;59479;51.902;8.212;2022-09-03T02:15:06;100756.34;;;19.44
71630;BMP280;59479;51.902;8.212;2022-09-03T02:17:35;100756.63;;;19.36
71630;BMP280;59479;51.902;8.212;2022-09-03T02:20:05;100750.72;;;19.35
71630;BMP280;59479;51.902;8.212;2022-09-03T02:22:32;100756.09;;;19.28
71630;BMP280;59479;51.902;8.212;2022-09-03T02:24:59;100758.50;;;19.31
71630;BMP280;59479;51.902;8.212;2022-09-03T02:27:25;100746.66;;;19.30
71630;BMP280;59479;51.902;8.212;2022-09-03T02:29:50;100753.63;;;19.25
71630;BMP280;59479;51.902;8.212;2022-09-03T02:32:15;100749.16;;;19.31
71630;BMP280;59479;51.902;8.212;2022-09-03T02:34:41;100744.03;;;19.33
71630;BMP280;59479;51.902;8.212;2022-09-03T02:37:12;100752.69;;;19.27
71630;BMP280;59479;51.902;8.212;2022-09-03T02:39:38;100749.31;;;19.27
71630;BMP280;59479;51.902;8.212;2022-09-03T02:42:03;100741.66;;;19.27
71630;BMP280;59479;51.902;8.212;2022-09-03T02:44:34;100745.09;;;19.26
71630;BMP280;59479;51.902;8.212;2022-09-03T02:47:04;100741.84;;;19.21
71630;BMP280;59479;51.902;8.212;2022-09-03T02:49:30;100742.16;;;19.12
71630;BMP280;59479;51.902;8.212;2022-09-03T02:51:58;100742.47;;;19.03
71630;BMP280;59479;51.902;8.212;2022-09-03T02:54:25;100747.81;;;18.94
71630;BMP280;59479;51.902;8.212;2022-09-03T02:56:51;100741.25;;;18.87
71630;BMP280;59479;51.902;8.212;2022-09-03T02:59:16;100743.88;;;18.84
71630;BMP280;59479;51.902;8.212;2022-09-03T03:01:46;100743.06;;;18.84
71630;BMP280;59479;51.902;8.212;2022-09-03T03:04:12;100735.44;;;18.84
71630;BMP280;59479;51.902;8.212;2022-09-03T03:06:37;100743.16;;;18.81
71630;BMP280;59479;51.902;8.212;2022-09-03T03:09:02;100733.78;;;18.83
71630;BMP280;59479;51.902;8.212;2022-09-03T03:11:30;100735.00;;;18.71
71630;BMP280;59479;51.902;8.212;2022-09-03T03:13:56;100734.25;;;18.68
71630;BMP280;59479;51.902;8.212;2022-09-03T03:16:21;100737.72;;;18.65
71630;BMP280;59479;51.902;8.212;2022-09-03T03:18:46;100732.81;;;18.59
71630;BMP280;59479;51.902;8.212;2022-09-03T03:21:14;100729.34;;;18.62
71630;BMP280;59479;51.902;8.212;2022-09-03T03:23:40;100724.28;;;18.60
71630;BMP280;59479;51.902;8.212;2022-09-03T03:26:09;100727.31;;;18.46
71630;BMP280;59479;51.902;8.212;2022-09-03T03:28:35;100737.47;;;18.46
71630;BMP280;59479;51.902;8.212;2022-09-03T03:31:12;100732.41;;;18.46
71630;BMP280;59479;51.902;8.212;2022-09-03T03:33:39;100736.63;;;18.47
71630;BMP280;59479;51.902;8.212;2022-09-03T03:36:06;100745.06;;;18.47
71630;BMP280;59479;51.902;8.212;2022-09-03T03:38:33;100739.91;;;18.50
71630;BMP280;59479;51.902;8.212;2022-09-03T03:40:58;100743.69;;;18.37
71630;BMP280;59479;51.902;8.212;2022-09-03T03:43:24;100737.16;;;18.29
71630;BMP280;59479;51.902;8.212;2022-09-03T03:45:57;100739.66;;;18.30
71630;BMP280;59479;51.902;8.212;2022-09-03T03:48:22;100737.94;;;18.31
71630;BMP280;59479;51.902;8.212;2022-09-03T03:50:48;100742.16;;;18.32
71630;BMP280;59479;51.902;8.212;2022-09-03T03:53:13;100743.88;;;18.31
71630;BMP280;59479;51.902;8.212;2022-09-03T03:55:38;100735.38;;;18.31
71630;BMP280;59479;51.902;8.212;2022-09-03T03:58:04;100733.69;;;18.31
71630;BMP280;59479;51.902;8.212;2022-09-03T04:00:29;100730.47;;;18.26
71630;BMP280;59479;51.902;8.212;2022-09-03T04:02:55;100728.75;;;18.27
71630;BMP280;59479;51.902;8.212;2022-09-03T04:05:20;100739.78;;;18.26
71630;BMP280;59479;51.902;8.212;2022-09-03T04:07:45;100728.03;;;18.22
71630;BMP280;59479;51.902;8.212;2022-09-03T04:10:10;100727.34;;;18.17
71630;BMP280;59479;51.902;8.212;2022-09-03T04:12:36;100723.97;;;18.16
71630;BMP280;59479;51.902;8.212;2022-09-03T04:15:01;100722.34;;;18.14
71630;BMP280;59479;51.902;8.212;2022-09-03T04:17:27;100721.50;;;18.13
71630;BMP280;59479;51.902;8.212;2022-09-03T04:19:52;100724.78;;;18.17
71630;BMP280;59479;51.902;8.212;2022-09-03T04:22:17;100725.81;;;18.11
71630;BMP280;59479;51.902;8.212;2022-09-03T04:24:44;100724.28;;;18.05
71630;BMP280;59479;51.902;8.212;2022-09-03T04:27:10;100723.25;;;18.11
71630;BMP280;59479;51.902;8.212;2022-09-03T04:29:35;100722.44;;;18.11
71630;BMP280;59479;51.902;8.212;2022-09-03T04:32:00;100721.06;;;18.00
71630;BMP280;59479;51.902;8.212;2022-09-03T04:34:44;100715.78;;;18.06
71630;BMP280;59479;51.902;8.212;2022-09-03T04:37:10;100715.09;;;17.99
71630;BMP280;59479;51.902;8.212;2022-09-03T04:39:35;100716.75;;;18.02
71630;BMP280;59479;51.902;8.212;2022-09-03T04:42:01;100716.69;;;18.03
71630;BMP280;59479;51.902;8.212;2022-09-03T04:44:26;100713.38;;;18.01
71630;BMP280;59479;51.902;8.212;2022-09-03T04:46:51;100716.66;;;18.05
71630;BMP280;59479;51.902;8.212;2022-09-03T04:49:17;100716.78;;;18.00
71630;BMP280;59479;51.902;8.212;2022-09-03T04:51:42;100718.28;;;18.07
71630;BMP280;59479;51.902;8.212;2022-09-03T04:54:08;100721.72;;;18.06
71630;BMP280;59479;51.902;8.212;2022-09-03T04:56:34;100722.22;;;17.88
71630;BMP280;59479;51.902;8.212;2022-09-03T04:59:06;100720.38;;;17.93
71630;BMP280;59479;51.902;8.212;2022-09-03T05:01:33;100729.88;;;17.87
71630;BMP280;59479;51.902;8.212;2022-09-03T05:03:59;100725.75;;;17.84
71630;BMP280;59479;51.902;8.212;2022-09-03T05:06:29;100729.06;;;17.86
71630;BMP280;59479;51.902;8.212;2022-09-03T05:08:56;100718.97;;;17.83
71630;BMP280;59479;51.902;8.212;2022-09-03T05:11:22;100724.88;;;17.84
71630;BMP280;59479;51.902;8.212;2022-09-03T05:13:49;100724.06;;;17.83
71630;BMP280;59479;51.902;8.212;2022-09-03T05:16:16;100715.66;;;17.81
71630;BMP280;59479;51.902;8.212;2022-09-03T05:18:42;100717.41;;;17.79
71630;BMP280;59479;51.902;8.212;2022-09-03T05:21:11;100718.19;;;17.81
71630;BMP280;59479;51.902;8.212;2022-09-03T05:23:38;100724.16;;;17.79
71630;BMP280;59479;51.902;8.212;2022-09-03T05:26:06;100723.28;;;17.81
71630;BMP280;59479;51.902;8.212;2022-09-03T05:28:36;100730.19;;;17.76
71630;BMP280;59479;51.902;8.212;2022-09-03T05:31:04;100730.97;;;17.78
71630;BMP280;59479;51.902;8.212;2022-09-03T05:33:41;100719.78;;;17.84
71630;BMP280;59479;51.902;8.212;2022-09-03T05:36:10;100723.31;;;17.80
71630;BMP280;59479;51.902;8.212;2022-09-03T05:38:36;100716.59;;;17.77
71630;BMP280;59479;51.902;8.212;2022-09-03T05:41:03;100716.38;;;17.85
71630;BMP280;59479;51.902;8.212;2022-09-03T05:43:30;100711.38;;;17.82
71630;BMP280;59479;51.902;8.212;2022-09-03T05:45:59;100718.19;;;17.81
71630;BMP280;59479;51.902;8.212;2022-09-03T05:48:26;100722.53;;;17.78
71630;BMP280;59479;51.902;8.212;2022-09-03T05:51:01;100715.69;;;17.80
71630;BMP280;59479;51.902;8.212;2022-09-03T05:53:29;100708.81;;;17.83
71630;BMP280;59479;51.902;8.212;2022-09-03T05:55:58;100718.25;;;17.78
71630;BMP280;59479;51.902;8.212;2022-09-03T05:58:28;100723.28;;;17.81
71630;BMP280;59479;51.902;8.212;2022-09-03T06:00:54;100719.06;;;17.80
71630;BMP280;59479;51.902;8.212;2022-09-03T06:03:19;100719.13;;;17.77
71630;BMP280;59479;51.902;8.212;2022-09-03T06:05:54;100724.44;;;17.70
71630;BMP280;59479;51.902;8.212;2022-09-03T06:08:20;100723.56;;;17.71
71630;BMP280;59479;51.902;8.212;2022-09-03T06:10:46;100726.16;;;17.69
71630;BMP280;59479;51.902;8.212;2022-09-03T06:13:12;100731.06;;;17.75
71630;BMP280;59479;51.902;8.212;2022-09-03T06:15:38;100723.44;;;17.75
71630;BMP280;59479;51.902;8.212;2022-09-03T06:18:04;100720.72;;;17.81
71630;BMP280;59479;51.902;8.212;2022-09-03T06:20:29;100723.34;;;17.78
71630;BMP280;59479;51.902;8.212;2022-09-03T06:22:57;100714.84;;;17.79
71630;BMP280;59479;51.902;8.212;2022-09-03T06:25:22;100716.31;;;17.88
71630;BMP280;59479;51.902;8.212;2022-09-03T06:27:47;100715.56;;;17.84
71630;BMP280;59479;51.902;8.212;2022-09-03T06:30:13;100724.16;;;17.79
71630;BMP280;59479;51.902;8.212;2022-09-03T06:32:45;100721.28;;;17.91
71630;BMP280;59479;51.902;8.212;2022-09-03T06:35:11;100725.81;;;17.81
71630;BMP280;59479;51.902;8.212;2022-09-03T06:37:40;100716.38;;;17.85
71630;BMP280;59479;51.902;8.212;2022-09-03T06:40:06;100719.84;;;17.82
71630;BMP280;59479;51.902;8.212;2022-09-03T06:42:33;100724.00;;;17.85
71630;BMP280;59479;51.902;8.212;2022-09-03T06:44:58;100729.84;;;17.88
71630;BMP280;59479;51.902;8.212;2022-09-03T06:47:24;100729.03;;;17.88
71630;BMP280;59479;51.902;8.212;2022-09-03T06:49:49;100725.63;;;17.87
71630;BMP280;59479;51.902;8.212;2022-09-03T06:52:14;100723.72;;;17.95
71630;BMP280;59479;51.902;8.212;2022-09-03T06:54:40;100721.88;;;18.00
71630;BMP280;59479;51.902;8.212;2022-09-03T06:57:05;100726.09;;;18.01
71630;BMP280;59479;51.902;8.212;2022-09-03T06:59:30;100738.06;;;17.98
71630;BMP280;59479;51.902;8.212;2022-09-03T07:01:56;100725.94;;;18.06
71630;BMP280;59479;51.902;8.212;2022-09-03T07:04:22;100731.06;;;18.04
71630;BMP280;59479;51.902;8.212;2022-09-03T07:06:49;100737.75;;;18.08
71630;BMP280;59479;51.902;8.212;2022-09-03T07:09:14;100731.66;;;18.15
71630;BMP280;59479;51.902;8.212;2022-09-03T07:11:42;100732.38;;;18.18
71630;BMP280;59479;51.902;8.212;2022-09-03T07:14:11;100727.38;;;18.15
71630;BMP280;59479;51.902;8.212;2022-09-03T07:16:37;100722.09;;;18.23
71630;BMP280;59479;51.902;8.212;2022-09-03T07:19:06;100726.09;;;18.30
71630;BMP280;59479;51.902;8.212;2022-09-03T07:21:33;100727.97;;;18.25
71630;BMP280;59479;51.902;8.212;2022-09-03T07:24:01;100723.47;;;18.33
71630;BMP280;59479;51.902;8.212;2022-09-03T07:26:32;100711.28;;;18.42
71630;BMP280;59479;51.902;8.212;2022-09-03T07:28:58;100720.72;;;18.39
71630;BMP280;59479;51.902;8.212;2022-09-03T07:31:28;100712.03;;;18.46
71630;BMP280;59479;51.902;8.212;2022-09-03T07:33:59;100716.88;;;18.54
71630;BMP280;59479;51.902;8.212;2022-09-03T07:36:27;100719.72;;;18.71
71630;BMP280;59479;51.902;8.212;2022-09-03T07:38:57;100715.41;;;18.73
71630;BMP280;59479;51.902;8.212;2022-09-03T07:41:23;100719.63;;;18.74
71630;BMP280;59479;51.902;8.212;2022-09-03T07:43:51;100716.88;;;18.80
71630;BMP280;59479;51.902;8.212;2022-09-03T07:46:22;100718.53;;;18.81
71630;BMP280;59479;51.902;8.212;2022-09-03T07:48:49;100713.31;;;18.84
71630;BMP280;59479;51.902;8.212;2022-09-03T07:51:16;100714.78;;;18.93
71630;BMP280;59479;51.902;8.212;2022-09-03T07:53:45;100717.88;;;19.02
71630;BMP280;59479;51.902;8.212;2022-09-03T07:56:12;100716.09;;;19.04
71630;BMP280;59479;51.902;8.212;2022-09-03T07:58:38;100718.56;;;19.07
71630;BMP280;59479;51.902;8.212;2022-09-03T08:01:07;100714.06;;;19.15
71630;BMP280;59479;51.902;8.212;2022-09-03T08:03:34;100716.13;;;19.28
71630;BMP280;59479;51.902;8.212;2022-09-03T08:06:04;100717.63;;;19.34
71630;BMP280;59479;51.902;8.212;2022-09-03T08:08:31;100725.09;;;19.39
71630;BMP280;59479;51.902;8.212;2022-09-03T08:11:08;100724.00;;;19.46
71630;BMP280;59479;51.902;8.212;2022-09-03T08:13:45;100722.63;;;19.61
71630;BMP280;59479;51.902;8.212;2022-09-03T08:16:12;100727.47;;;19.68
71630;BMP280;59479;51.902;8.212;2022-09-03T08:18:38;100728.22;;;19.70
71630;BMP280;59479;51.902;8.212;2022-09-03T08:21:05;100728.66;;;19.82
71630;BMP280;59479;51.902;8.212;2022-09-03T08:23:32;100720.38;;;19.99
71630;BMP280;59479;51.902;8.212;2022-09-03T08:25:59;100725.19;;;20.08
71630;BMP280;59479;51.902;8.212;2022-09-03T08:28:25;100727.94;;;20.24
71630;BMP280;59479;51.902;8.212;2022-09-03T08:30:50;100731.38;;;20.23
71630;BMP280;59479;51.902;8.212;2022-09-03T08:33:15;100720.28;;;20.24
71630;BMP280;59479;51.902;8.212;2022-09-03T08:35:40;100723.19;;;20.37
71630;BMP280;59479;51.902;8.212;2022-09-03T08:38:06;100725.31;;;20.47
71630;BMP280;59479;51.902;8.212;2022-09-03T08:40:36;100717.81;;;20.65
71630;BMP280;59479;51.902;8.212;2022-09-03T08:43:05;100713.50;;;20.67
71630;BMP280;59479;51.902;8.212;2022-09-03T08:45:35;100712.03;;;20.82
71630;BMP280;59479;51.902;8.212;2022-09-03T08:48:17;100710.19;;;20.85
71630;BMP280;59479;51.902;8.212;2022-09-03T08:50:48;100702.03;;;20.97
71630;BMP280;59479;51.902;8.212;2022-09-03T08:53:23;100708.56;;;21.04
71630;BMP280;59479;51.902;8.212;2022-09-03T08:55:54;100704.28;;;21.05
71630;BMP280;59479;51.902;8.212;2022-09-03T08:58:25;100712.78;;;21.05
71630;BMP280;59479;51.902;8.212;2022-09-03T09:03:56;100711.84;;;21.27
71630;BMP280;59479;51.902;8.212;2022-09-03T09:06:31;100714.63;;;21.41
71630;BMP280;59479;51.902;8.212;2022-09-03T09:09:11;100710.25;;;21.45
71630;BMP280;59479;51.902;8.212;2022-09-03T09:25:07;100691.91;;;22.10
71630;BMP280;59479;51.902;8.212;2022-09-03T09:27:33;100699.66;;;22.08
71630;BMP280;59479;51.902;8.212;2022-09-03T09:30:03;100692.00;;;22.08
71630;BMP280;59479;51.902;8.212;2022-09-03T09:32:28;100681.56;;;22.13
71630;BMP280;59479;51.902;8.212;2022-09-03T09:34:56;100696.03;;;22.14
71630;BMP280;59479;51.902;8.212;2022-09-03T09:37:21;100676.72;;;22.25
71630;BMP280;59479;51.902;8.212;2022-09-03T09:39:58;100677.00;;;22.37
71630;BMP280;59479;51.902;8.212;2022-09-03T09:42:25;100676.53;;;22.46
71630;BMP280;59479;51.902;8.212;2022-09-03T09:44:51;100677.97;;;22.52
71630;BMP280;59479;51.902;8.212;2022-09-03T09:47:26;100688.25;;;22.69
71630;BMP280;59479;51.902;8.212;2022-09-03T09:49:59;100678.78;;;22.71
71630;BMP280;59479;51.902;8.212;2022-09-03T09:52:26;100673.72;;;22.69
71630;BMP280;59479;51.902;8.212;2022-09-03T09:55:05;100670.63;;;22.79
71630;BMP280;59479;51.902;8.212;2022-09-03T09:57:32;100661.53;;;22.74
71630;BMP280;59479;51.902;8.212;2022-09-03T10:00:04;100668.97;;;22.78
71630;BMP280;59479;51.902;8.212;2022-09-03T10:02:34;100670.09;;;22.90
71630;BMP280;59479;51.902;8.212;2022-09-03T10:05:20;100668.72;;;23.01
71630;BMP280;59479;51.902;8.212;2022-09-03T10:07:58;100667.81;;;23.02
71630;BMP280;59479;51.902;8.212;2022-09-03T10:10:25;100668.53;;;23.21
71630;BMP280;59479;51.902;8.212;2022-09-03T10:13:01;100669.13;;;23.26
71630;BMP280;59479;51.902;8.212;2022-09-03T10:18:31;100660.09;;;23.19
71630;BMP280;59479;51.902;8.212;2022-09-03T10:26:40;100669.88;;;23.28
71630;BMP280;59479;51.902;8.212;2022-09-03T10:29:09;100658.75;;;23.61
71630;BMP280;59479;51.902;8.212;2022-09-03T10:32:16;100662.38;;;23.57
71630;BMP280;59479;51.902;8.212;2022-09-03T10:35:02;100657.13;;;23.75
71630;BMP280;59479;51.902;8.212;2022-09-03T10:37:37;100649.09;;;23.97
71630;BMP280;59479;51.902;8.212;2022-09-03T10:42:41;100646.44;;;23.98
71630;BMP280;59479;51.902;8.212;2022-09-03T10:45:17;100658.09;;;23.88
71630;BMP280;59479;51.902;8.212;2022-09-03T10:48:04;100652.88;;;24.05
71630;BMP280;59479;51.902;8.212;2022-09-03T10:50:45;100645.38;;;24.02
71630;BMP280;59479;51.902;8.212;2022-09-03T10:56:28;100644.56;;;24.32
71630;BMP280;59479;51.902;8.212;2022-09-03T11:01:38;100647.84;;;24.19
71630;BMP280;59479;51.902;8.212;2022-09-03T11:04:32;100648.69;;;24.35
71630;BMP280;59479;51.902;8.212;2022-09-03T11:07:03;100644.78;;;24.43
71630;BMP280;59479;51.902;8.212;2022-09-03T11:09:54;100644.72;;;24.58
71630;BMP280;59479;51.902;8.212;2022-09-03T11:13:19;100634.91;;;24.80
71630;BMP280;59479;51.902;8.212;2022-09-03T11:15:27;100644.25;;;24.81
71630;BMP280;59479;51.902;8.212;2022-09-03T11:18:14;100645.72;;;24.85
71630;BMP280;59479;51.902;8.212;2022-09-03T11:20:42;100636.47;;;24.83
71630;BMP280;59479;51.902;8.212;2022-09-03T11:23:08;100632.03;;;24.71
71630;BMP280;59479;51.902;8.212;2022-09-03T11:25:42;100637.09;;;24.72
71630;BMP280;59479;51.902;8.212;2022-09-03T11:28:24;100638.53;;;24.62
71630;BMP280;59479;51.902;8.212;2022-09-03T11:33:44;100630.66;;;24.79
71630;BMP280;59479;51.902;8.212;2022-09-03T11:36:10;100629.88;;;24.92
71630;BMP280;59479;51.902;8.212;2022-09-03T11:38:36;100628.19;;;25.07
71630;BMP280;59479;51.902;8.212;2022-09-03T11:41:25;100626.91;;;25.14
71630;BMP280;59479;51.902;8.212;2022-09-03T11:43:51;100637.50;;;24.94
71630;BMP280;59479;51.902;8.212;2022-09-03T11:48:51;100620.13;;;24.84
71630;BMP280;59479;51.902;8.212;2022-09-03T11:54:23;100609.16;;;25.09
71630;BMP280;59479;51.902;8.212;2022-09-03T11:57:06;100608.91;;;25.14
71630;BMP280;59479;51.902;8.212;2022-09-03T11:59:36;100614.22;;;25.25
71630;BMP280;59479;51.902;8.212;2022-09-03T12:02:09;100591.38;;;25.20
71630;BMP280;59479;51.902;8.212;2022-09-03T12:04:46;100605.69;;;25.52
71630;BMP280;59479;51.902;8.212;2022-09-03T12:10:34;100605.38;;;25.84
71630;BMP280;59479;51.902;8.212;2022-09-03T12:13:32;100603.75;;;25.69
71630;BMP280;59479;51.902;8.212;2022-09-03T12:16:24;100614.50;;;25.34
71630;BMP280;59479;51.902;8.212;2022-09-03T12:19:03;100611.47;;;25.55
71630;BMP280;59479;51.902;8.212;2022-09-03T12:21:37;100604.66;;;25.54
71630;BMP280;59479;51.902;8.212;2022-09-03T12:24:03;100607.88;;;25.44
71630;BMP280;59479;51.902;8.212;2022-09-03T12:26:28;100603.22;;;25.64
71630;BMP280;59479;51.902;8.212;2022-09-03T12:28:59;100599.53;;;25.40
71630;BMP280;59479;51.902;8.212;2022-09-03T12:31:30;100600.97;;;25.44
71630;BMP280;59479;51.902;8.212;2022-09-03T12:34:08;100604.75;;;25.39
71630;BMP280;59479;51.902;8.212;2022-09-03T12:36:38;100598.97;;;25.49
71630;BMP280;59479;51.902;8.212;2022-09-03T12:39:08;100592.31;;;25.59
71630;BMP280;59479;51.902;8.212;2022-09-03T12:41:34;100599.16;;;25.46
71630;BMP280;59479;51.902;8.212;2022-09-03T12:43:59;100590.13;;;25.81
71630;BMP280;59479;51.902;8.212;2022-09-03T12:46:29;100593.94;;;26.02
71630;BMP280;59479;51.902;8.212;2022-09-03T12:49:01;100582.09;;;26.12
71630;BMP280;59479;51.902;8.212;2022-09-03T12:51:37;100585.56;;;26.24
71630;BMP280;59479;51.902;8.212;2022-09-03T12:54:05;100583.72;;;26.26
71630;BMP280;59479;51.902;8.212;2022-09-03T12:56:34;100588.72;;;26.16
71630;BMP280;59479;51.902;8.212;2022-09-03T12:59:13;100580.56;;;26.21
71630;BMP280;59479;51.902;8.212;2022-09-03T13:01:47;100581.13;;;26.26
71630;BMP280;59479;51.902;8.212;2022-09-03T13:04:19;100572.84;;;26.21
71630;BMP280;59479;51.902;8.212;2022-09-03T13:06:49;100585.00;;;26.33
71630;BMP280;59479;51.902;8.212;2022-09-03T13:09:22;100587.50;;;26.47
71630;BMP280;59479;51.902;8.212;2022-09-03T13:11:50;100581.38;;;26.10
71630;BMP280;59479;51.902;8.212;2022-09-03T13:14:16;100591.34;;;26.02
71630;BMP280;59479;51.902;8.212;2022-09-03T13:19:26;100587.84;;;26.03
71630;BMP280;59479;51.902;8.212;2022-09-03T13:25:00;100578.00;;;26.21
71630;BMP280;59479;51.902;8.212;2022-09-03T13:33:33;100577.53;;;26.03
71630;BMP280;59479;51.902;8.212;2022-09-03T13:36:13;100588.44;;;25.94
71630;BMP280;59479;51.902;8.212;2022-09-03T13:41:37;100588.13;;;25.98
71630;BMP280;59479;51.902;8.212;2022-09-03T13:46:43;100585.31;;;25.89
71630;BMP280;59479;51.902;8.212;2022-09-03T13:49:22;100584.81;;;25.96
71630;BMP280;59479;51.902;8.212;2022-09-03T13:52:19;100591.72;;;25.96
71630;BMP280;59479;51.902;8.212;2022-09-03T13:54:51;100584.81;;;25.96
71630;BMP280;59479;51.902;8.212;2022-09-03T13:57:29;100577.28;;;26.19
71630;BMP280;59479;51.902;8.212;2022-09-03T14:00:04;100577.97;;;26.09
71630;BMP280;59479;51.902;8.212;2022-09-03T14:03:02;100579.41;;;26.27
71630;BMP280;59479;51.902;8.212;2022-09-03T14:05:46;100572.09;;;26.07
71630;BMP280;59479;51.902;8.212;2022-09-03T14:11:08;100576.31;;;26.34
71630;BMP280;59479;51.902;8.212;2022-09-03T14:16:30;100576.03;;;26.51
71630;BMP280;59479;51.902;8.212;2022-09-03T14:19:47;100577.38;;;26.44
71630;BMP280;59479;51.902;8.212;2022-09-03T14:22:14;100572.41;;;26.41
71630;BMP280;59479;51.902;8.212;2022-09-03T14:27:21;100574.22;;;26.65
71630;BMP280;59479;51.902;8.212;2022-09-03T14:29:59;100572.56;;;26.52
71630;BMP280;59479;51.902;8.212;2022-09-03T14:40:41;100574.19;;;26.92
71630;BMP280;59479;51.902;8.212;2022-09-03T14:43:13;100575.38;;;27.11
71630;BMP280;59479;51.902;8.212;2022-09-03T14:45:51;100573.94;;;27.19
71630;BMP280;59479;51.902;8.212;2022-09-03T14:48:42;100570.59;;;27.30
71630;BMP280;59479;51.902;8.212;2022-09-03T14:57:10;100579.34;;;26.92
71630;BMP280;59479;51.902;8.212;2022-09-03T15:05:09;100583.88;;;27.01
71630;BMP280;59479;51.902;8.212;2022-09-03T15:10:26;100588.78;;;26.79
71630;BMP280;59479;51.902;8.212;2022-09-03T15:12:58;100583.38;;;26.57
71630;BMP280;59479;51.902;8.212;2022-09-03T15:15:34;100597.53;;;26.64
71630;BMP280;59479;51.902;8.212;2022-09-03T15:21:14;100581.59;;;26.96
71630;BMP280;59479;51.902;8.212;2022-09-03T15:23:56;100590.47;;;26.92
71630;BMP280;59479;51.902;8.212;2022-09-03T15:29:27;100596.09;;;26.72
71630;BMP280;59479;51.902;8.212;2022-09-03T15:32:12;100597.84;;;26.72
71630;BMP280;59479;51.902;8.212;2022-09-03T15:35:04;100604.06;;;26.82
71630;BMP280;59479;51.902;8.212;2022-09-03T15:42:32;100602.25;;;27.08
71630;BMP280;59479;51.902;8.212;2022-09-03T15:45:34;100609.53;;;26.90
71630;BMP280;59479;51.902;8.212;2022-09-03T15:48:15;100606.78;;;27.05
71630;BMP280;59479;51.902;8.212;2022-09-03T15:51:04;100610.84;;;26.83
71630;BMP280;59479;51.902;8.212;2022-09-03T15:53:38;100610.31;;;26.78
71630;BMP280;59479;51.902;8.212;2022-09-03T15:56:40;100610.50;;;26.89
71630;BMP280;59479;51.902;8.212;2022-09-03T16:00:02;100612.72;;;26.81
71630;BMP280;59479;51.902;8.212;2022-09-03T16:02:41;100616.00;;;26.83
71630;BMP280;59479;51.902;8.212;2022-09-03T16:05:15;100624.25;;;26.75
71630;BMP280;59479;51.902;8.212;2022-09-03T16:13:53;100622.53;;;26.50
71630;BMP280;59479;51.902;8.212;2022-09-03T16:19:10;100620.31;;;26.31
71630;BMP280;59479;51.902;8.212;2022-09-03T16:21:57;100614.84;;;26.62
71630;BMP280;59479;51.902;8.212;2022-09-03T16:27:19;100620.53;;;26.79
71630;BMP280;59479;51.902;8.212;2022-09-03T16:32:52;100610.81;;;26.58
71630;BMP280;59479;51.902;8.212;2022-09-03T16:35:33;100618.22;;;26.50
71630;BMP280;59479;51.902;8.212;2022-09-03T16:38:32;100621.72;;;26.37
71630;BMP280;59479;51.902;8.212;2022-09-03T16:44:34;100616.13;;;26.30
71630;BMP280;59479;51.902;8.212;2022-09-03T16:46:41;100623.97;;;26.15
71630;BMP280;59479;51.902;8.212;2022-09-03T16:49:38;100625.22;;;26.22
71630;BMP280;59479;51.902;8.212;2022-09-03T16:58:09;100626.53;;;25.89
71630;BMP280;59479;51.902;8.212;2022-09-03T17:04:22;100636.56;;;25.66
71630;BMP280;59479;51.902;8.212;2022-09-03T17:07:06;100634.63;;;25.69
71630;BMP280;59479;51.902;8.212;2022-09-03T17:18:04;100637.72;;;25.88
71630;BMP280;59479;51.902;8.212;2022-09-03T17:20:47;100633.06;;;25.80
71630;BMP280;59479;51.902;8.212;2022-09-03T17:23:23;100640.69;;;25.54
71630;BMP280;59479;51.902;8.212;2022-09-03T17:26:05;100638.84;;;25.56
71630;BMP280;59479;51.902;8.212;2022-09-03T17:34:20;100641.59;;;25.53
71630;BMP280;59479;51.902;8.212;2022-09-03T17:37:20;100653.19;;;25.33
71630;BMP280;59479;51.902;8.212;2022-09-03T17:45:35;100657.97;;;25.38
71630;BMP280;59479;51.902;8.212;2022-09-03T17:51:06;100656.50;;;25.34